createdAt,value
2019-05-20T03:02:25.540Z,20.57
2019-05-20T03:04:53.924Z,23.63
2019-05-20T03:07:22.315Z,17.47
2019-05-20T03:09:50.672Z,18.63
2019-05-20T03:12:19.077Z,18.70
2019-05-20T03:14:47.450Z,21.97
2019-05-20T03:17:15.856Z,18.93
2019-05-20T03:19:44.217Z,20.23
2019-05-20T03:22:12.598Z,26.37
2019-05-20T03:24:40.984Z,19.87
2019-05-20T03:27:09.373Z,20.97
2019-05-20T03:29:37.733Z,19.73
2019-05-20T03:32:06.130Z,19.93
2019-05-20T03:34:50.579Z,17.03
2019-05-20T03:37:04.512Z,19.57
2019-05-20T03:39:32.802Z,18.83
2019-05-20T03:42:01.213Z,21.70
2019-05-20T03:44:29.586Z,24.63
2019-05-20T03:46:57.978Z,20.33
2019-05-20T03:49:26.726Z,19.13
2019-05-20T03:51:55.217Z,21.17
2019-05-20T03:54:23.587Z,20.47
2019-05-20T03:56:52.004Z,20.33
2019-05-20T03:59:20.431Z,23.47
2019-05-20T04:01:48.789Z,27.57
2019-05-20T04:04:17.170Z,29.70
2019-05-20T04:06:45.478Z,23.23
2019-05-20T04:09:13.876Z,21.23
2019-05-20T04:11:42.222Z,26.10
2019-05-20T04:14:10.627Z,28.03
2019-05-20T04:16:39.019Z,21.40
2019-05-20T04:19:07.513Z,22.43
2019-05-20T04:21:35.901Z,25.97
2019-05-20T04:24:04.309Z,24.70
2019-05-20T04:26:32.777Z,25.83
2019-05-20T04:29:01.451Z,27.20
2019-05-20T04:31:29.812Z,22.70
2019-05-20T04:33:58.615Z,26.33
2019-05-20T04:36:26.968Z,27.80
2019-05-20T04:38:57.016Z,23.00
2019-05-20T04:41:25.532Z,20.03
2019-05-20T04:43:54.082Z,21.27
2019-05-20T04:46:22.517Z,23.27
2019-05-20T04:48:50.894Z,20.40
2019-05-20T04:51:19.186Z,21.63
2019-05-20T04:53:47.569Z,19.77
2019-05-20T04:56:15.929Z,21.97
2019-05-20T04:58:44.245Z,25.40
2019-05-20T05:01:12.634Z,21.10
2019-05-20T05:03:41.009Z,18.83
2019-05-20T05:06:09.393Z,21.23
2019-05-20T05:08:37.780Z,19.83
2019-05-20T05:11:06.142Z,17.33
2019-05-20T05:13:34.522Z,26.40
2019-05-20T05:16:02.905Z,20.33
2019-05-20T05:18:31.313Z,18.00
2019-05-20T05:20:59.659Z,18.83
2019-05-20T05:23:28.068Z,17.17
2019-05-20T05:25:56.417Z,15.00
2019-05-20T05:28:24.777Z,15.77
2019-05-20T05:30:53.106Z,16.30
2019-05-20T05:33:22.742Z,22.23
2019-05-20T05:35:53.577Z,17.33
2019-05-20T05:38:21.329Z,15.23
2019-05-20T05:40:50.607Z,24.70
2019-05-20T05:43:19.035Z,22.33
2019-05-20T05:45:48.344Z,19.77
2019-05-20T05:48:17.352Z,20.20
2019-05-20T05:50:45.733Z,16.07
2019-05-20T05:53:14.020Z,17.57
2019-05-20T05:55:42.404Z,17.27
2019-05-20T05:58:10.764Z,20.20
2019-05-20T06:00:39.160Z,17.80
2019-05-20T06:03:07.515Z,17.53
2019-05-20T06:05:35.937Z,18.87
2019-05-20T06:08:04.278Z,15.63
2019-05-20T06:10:35.750Z,13.87
2019-05-20T06:13:02.763Z,15.27
2019-05-20T06:15:31.157Z,18.73
2019-05-20T06:17:59.452Z,15.33
2019-05-20T06:20:27.843Z,16.10
2019-05-20T06:22:56.190Z,18.00
2019-05-20T06:25:24.573Z,16.07
2019-05-20T06:27:52.867Z,20.37
2019-05-20T06:30:24.509Z,17.97
2019-05-20T06:32:52.879Z,16.80
2019-05-20T06:35:21.269Z,17.23
2019-05-20T06:37:51.289Z,14.77
2019-05-20T06:40:19.693Z,15.13
2019-05-20T06:42:48.037Z,15.27
2019-05-20T06:45:16.444Z,19.73
2019-05-20T06:47:44.845Z,21.73
2019-05-20T06:50:13.212Z,16.67
2019-05-20T06:52:41.594Z,18.83
2019-05-20T06:55:09.975Z,20.83
2019-05-20T06:57:38.431Z,18.93
2019-05-20T07:00:07.892Z,18.17
2019-05-20T07:02:36.374Z,16.50
2019-05-20T07:05:07.543Z,15.63
2019-05-20T07:07:36.011Z,21.40
2019-05-20T07:10:07.585Z,15.60
2019-05-20T07:12:41.189Z,14.83
2019-05-20T07:15:06.968Z,11.90
2019-05-20T07:17:35.340Z,14.37
2019-05-20T07:20:04.539Z,18.00
2019-05-20T07:22:32.917Z,14.83
2019-05-20T07:25:01.436Z,11.40
2019-05-20T07:27:29.984Z,14.60
2019-05-20T07:29:58.701Z,18.57
2019-05-20T07:32:27.102Z,12.00
2019-05-20T07:34:55.445Z,13.27
2019-05-20T07:37:23.851Z,12.30
2019-05-20T07:39:52.340Z,18.93
2019-05-20T07:42:20.749Z,10.60
2019-05-20T07:44:49.097Z,11.20
2019-05-20T07:47:17.428Z,11.33
2019-05-20T07:49:45.789Z,12.00
2019-05-20T07:52:14.232Z,10.40
2019-05-20T07:54:42.564Z,11.07
2019-05-20T07:57:10.963Z,10.97
2019-05-20T07:59:39.323Z,10.30
2019-05-20T08:02:07.702Z,12.80
2019-05-20T08:04:36.049Z,15.67
2019-05-20T08:07:26.049Z,17.90
2019-05-20T08:09:34.478Z,16.27
2019-05-20T08:12:02.881Z,14.20
2019-05-20T08:14:31.225Z,12.80
2019-05-20T08:16:59.597Z,13.33
2019-05-20T08:19:27.987Z,14.20
2019-05-20T08:21:56.337Z,13.20
2019-05-20T08:24:24.669Z,12.50
2019-05-20T08:26:53.177Z,8.63
2019-05-20T08:29:21.678Z,10.70
2019-05-20T08:31:49.960Z,8.60
2019-05-20T08:34:18.339Z,9.47
2019-05-20T08:36:46.696Z,10.87
2019-05-20T08:39:15.085Z,15.00
2019-05-20T08:41:43.425Z,9.87
2019-05-20T08:44:11.749Z,15.07
2019-05-20T08:46:40.137Z,9.73
2019-05-20T08:49:11.103Z,10.53
2019-05-20T08:51:38.711Z,12.93
2019-05-20T08:54:07.159Z,12.13
2019-05-20T08:56:35.527Z,12.60
2019-05-20T08:59:04.057Z,11.23
2019-05-20T09:01:32.436Z,8.83
2019-05-20T09:04:00.957Z,10.90
2019-05-20T09:06:29.456Z,11.50
2019-05-20T09:08:57.848Z,14.53
2019-05-20T09:11:26.249Z,10.27
2019-05-20T09:13:54.628Z,11.40
2019-05-20T09:16:23.062Z,8.40
2019-05-20T09:18:51.526Z,8.23
2019-05-20T09:21:19.869Z,10.23
2019-05-20T09:23:48.599Z,8.40
2019-05-20T09:26:16.986Z,8.30
2019-05-20T09:28:45.364Z,9.23
2019-05-20T09:31:13.806Z,14.13
2019-05-20T09:33:42.300Z,11.67
2019-05-20T09:36:10.717Z,13.83
2019-05-20T09:38:39.245Z,13.20
2019-05-20T09:41:07.658Z,12.93
2019-05-20T09:43:36.102Z,16.40
2019-05-20T09:46:08.001Z,14.63
2019-05-20T09:48:34.499Z,11.13
2019-05-20T09:51:02.884Z,8.97
2019-05-20T09:53:31.565Z,15.80
2019-05-20T09:56:00.102Z,16.67
2019-05-20T09:58:28.465Z,17.67
2019-05-20T10:00:56.845Z,13.97
2019-05-20T10:03:25.134Z,12.57
2019-05-20T10:05:53.517Z,17.17
2019-05-20T10:08:36.204Z,14.57
2019-05-20T10:10:51.910Z,15.37
2019-05-20T10:13:20.260Z,19.33
2019-05-20T10:15:48.590Z,19.37
2019-05-20T10:18:35.573Z,16.93
2019-05-20T10:20:47.019Z,16.33
2019-05-20T10:23:15.999Z,12.57
2019-05-20T10:25:44.488Z,13.40
2019-05-20T10:28:12.847Z,11.70
2019-05-20T10:30:41.370Z,13.03
2019-05-20T10:33:10.716Z,18.03
2019-05-20T10:35:39.381Z,12.90
2019-05-20T10:38:07.745Z,12.63
2019-05-20T10:40:36.297Z,14.80
2019-05-20T10:43:04.766Z,14.27
2019-05-20T10:45:33.900Z,16.07
2019-05-20T10:48:02.358Z,12.07
2019-05-20T10:50:30.752Z,10.77
2019-05-20T10:52:59.112Z,14.17
2019-05-20T10:55:27.775Z,11.27
2019-05-20T10:57:56.085Z,14.00
2019-05-20T11:00:24.476Z,16.67
2019-05-20T11:02:52.837Z,17.53
2019-05-20T11:05:22.973Z,11.87
2019-05-20T11:07:51.909Z,11.07
2019-05-20T11:10:20.393Z,13.57
2019-05-20T11:12:48.769Z,11.40
2019-05-20T11:15:17.129Z,9.87
2019-05-20T11:17:45.582Z,14.70
2019-05-20T11:20:13.937Z,12.37
2019-05-20T11:22:42.229Z,9.80
2019-05-20T11:25:12.149Z,11.97
2019-05-20T11:27:40.542Z,9.40
2019-05-20T11:30:09.224Z,9.70
2019-05-20T11:32:37.638Z,9.67
2019-05-20T11:35:07.756Z,9.90
2019-05-20T11:37:36.139Z,11.67
2019-05-20T11:40:09.076Z,11.93
2019-05-20T11:42:38.014Z,12.07
2019-05-20T11:45:09.414Z,9.20
2019-05-20T11:47:37.791Z,11.23
2019-05-20T11:50:07.961Z,6.20
2019-05-20T11:52:36.457Z,10.03
2019-05-20T11:55:06.765Z,8.17
2019-05-20T11:57:35.195Z,10.07
2019-05-20T12:00:08.526Z,6.80
2019-05-20T12:02:37.097Z,6.20
2019-05-20T12:05:06.412Z,7.80
2019-05-20T12:07:34.950Z,7.40
2019-05-20T12:10:08.725Z,8.30
2019-05-20T12:12:37.353Z,7.17
2019-05-20T12:15:07.438Z,7.83
2019-05-20T12:17:36.505Z,10.27
2019-05-20T12:20:11.869Z,9.30
2019-05-20T12:22:39.922Z,9.53
2019-05-20T12:25:08.337Z,9.00
2019-05-20T12:27:36.641Z,7.17
2019-05-20T12:30:05.676Z,8.57
2019-05-20T12:32:34.121Z,5.17
2019-05-20T12:35:02.475Z,5.93
2019-05-20T12:37:30.851Z,8.87
2019-05-20T12:40:07.251Z,7.83
2019-05-20T12:42:29.233Z,7.73
2019-05-20T12:44:57.588Z,8.10
2019-05-20T12:47:25.898Z,10.57
2019-05-20T12:49:54.559Z,11.83
2019-05-20T12:52:22.930Z,8.73
2019-05-20T12:55:06.004Z,10.90
2019-05-20T12:57:21.891Z,12.57
2019-05-20T12:59:50.396Z,9.60
2019-05-20T13:02:18.759Z,6.97
2019-05-20T13:04:47.198Z,10.07
2019-05-20T13:07:15.659Z,10.43
2019-05-20T13:09:44.101Z,9.63
2019-05-20T13:12:12.467Z,13.57
2019-05-20T13:14:40.855Z,17.50
2019-05-20T13:17:09.221Z,15.40
2019-05-20T13:19:37.625Z,12.13
2019-05-20T13:22:05.973Z,13.47
2019-05-20T13:24:34.358Z,17.17
2019-05-20T13:27:02.731Z,15.37
2019-05-20T13:29:31.115Z,15.13
2019-05-20T13:31:59.499Z,12.70
2019-05-20T13:34:27.873Z,12.93
2019-05-20T13:36:56.163Z,16.97
2019-05-20T13:39:24.742Z,15.87
2019-05-20T13:41:53.157Z,15.53
2019-05-20T13:44:21.505Z,15.70
2019-05-20T13:46:49.905Z,15.23
2019-05-20T13:49:18.246Z,17.53
2019-05-20T13:51:46.542Z,17.60
2019-05-20T13:54:14.921Z,12.73
2019-05-20T13:56:43.292Z,15.00
2019-05-20T13:59:11.698Z,15.23
2019-05-20T14:01:40.073Z,14.43
2019-05-20T14:04:08.475Z,12.93
2019-05-20T14:06:36.851Z,12.40
2019-05-20T14:09:07.719Z,16.37
2019-05-20T14:11:36.016Z,15.43
2019-05-20T14:14:04.395Z,17.30
2019-05-20T14:16:32.749Z,13.90
2019-05-20T14:19:01.141Z,12.70
2019-05-20T14:21:29.530Z,15.63
2019-05-20T14:23:57.893Z,13.27
2019-05-20T14:26:26.302Z,14.43
2019-05-20T14:28:54.791Z,15.10
2019-05-20T14:31:23.406Z,13.40
2019-05-20T14:33:51.765Z,14.10
2019-05-20T14:36:38.488Z,13.80
2019-05-20T14:38:50.128Z,18.13
2019-05-20T14:41:21.746Z,15.10
2019-05-20T14:43:48.596Z,16.77
2019-05-20T14:46:16.907Z,12.07
2019-05-20T14:48:45.265Z,13.40
2019-05-20T14:51:13.712Z,11.43
2019-05-20T14:53:42.078Z,13.70
2019-05-20T14:56:10.465Z,17.40
2019-05-20T14:58:38.829Z,14.00
2019-05-20T15:01:07.138Z,15.47
2019-05-20T15:03:35.542Z,15.37
2019-05-20T15:06:03.901Z,14.63
2019-05-20T15:08:34.872Z,15.57
2019-05-20T15:11:02.378Z,11.73
2019-05-20T15:13:30.694Z,16.83
2019-05-20T15:15:59.078Z,15.00
2019-05-20T15:18:28.301Z,16.23
2019-05-20T15:20:56.713Z,18.23
2019-05-20T15:23:25.138Z,11.73
2019-05-20T15:25:53.836Z,13.30
2019-05-20T15:28:22.419Z,13.33
2019-05-20T15:30:50.838Z,13.00
2019-05-20T15:33:19.158Z,10.33
2019-05-20T15:35:47.628Z,12.60
2019-05-20T15:38:16.007Z,13.70
2019-05-20T15:40:44.369Z,14.27
2019-05-20T15:43:12.756Z,13.07
2019-05-20T15:45:41.338Z,9.73
2019-05-20T15:48:09.705Z,10.43
2019-05-20T15:50:38.065Z,15.03
2019-05-20T15:53:10.955Z,12.17
2019-05-20T15:55:36.560Z,17.40
2019-05-20T15:58:04.993Z,13.23
2019-05-20T16:00:33.389Z,15.23
2019-05-20T16:03:02.048Z,18.30
2019-05-20T16:05:30.412Z,12.47
2019-05-20T16:07:58.811Z,11.93
2019-05-20T16:10:27.610Z,13.90
2019-05-20T16:12:55.961Z,15.30
2019-05-20T16:15:24.246Z,15.03
2019-05-20T16:17:52.625Z,10.37
2019-05-20T16:20:20.991Z,13.73
2019-05-20T16:22:49.382Z,16.47
2019-05-20T16:25:17.742Z,19.40
2019-05-20T16:27:46.169Z,12.07
2019-05-20T16:30:14.506Z,16.90
2019-05-20T16:32:42.962Z,16.20
2019-05-20T16:35:11.329Z,15.13
2019-05-20T16:37:39.723Z,11.97
2019-05-20T16:40:08.243Z,11.90
2019-05-20T16:42:36.636Z,13.67
2019-05-20T16:45:11.623Z,15.33
2019-05-20T16:47:39.703Z,11.67
2019-05-20T16:50:09.221Z,12.47
2019-05-20T16:52:38.334Z,17.63
2019-05-20T16:55:06.729Z,14.37
2019-05-20T16:57:35.104Z,17.43
2019-05-20T17:00:07.336Z,13.70
2019-05-20T17:02:33.501Z,14.63
2019-05-20T17:05:01.869Z,15.40
2019-05-20T17:07:30.255Z,12.20
2019-05-20T17:09:58.849Z,14.20
2019-05-20T17:12:27.229Z,12.67
2019-05-20T17:14:55.577Z,12.90
2019-05-20T17:17:23.965Z,9.30
2019-05-20T17:19:52.347Z,14.37
2019-05-20T17:22:21.159Z,8.73
2019-05-20T17:24:49.497Z,13.90
2019-05-20T17:27:17.860Z,13.10
2019-05-20T17:29:46.253Z,15.13
2019-05-20T17:32:14.693Z,11.63
2019-05-20T17:35:02.503Z,21.07
2019-05-20T17:37:30.902Z,14.40
2019-05-20T17:39:59.294Z,11.40
2019-05-20T17:42:27.656Z,15.00
2019-05-20T17:44:56.030Z,14.17
2019-05-20T17:47:24.386Z,9.43
2019-05-20T17:49:52.760Z,9.97
2019-05-20T17:52:21.114Z,11.90
2019-05-20T17:54:49.505Z,15.03
2019-05-20T17:57:17.795Z,7.70
2019-05-20T17:59:46.194Z,10.60
2019-05-20T18:02:14.548Z,7.23
2019-05-20T18:04:42.936Z,9.90
2019-05-20T18:07:11.300Z,13.80
2019-05-20T18:09:41.325Z,12.50
2019-05-20T18:12:09.616Z,10.97
2019-05-20T18:14:39.058Z,9.87
2019-05-20T18:17:07.432Z,9.87
2019-05-20T18:19:35.837Z,7.00
2019-05-20T18:22:04.231Z,8.73
2019-05-20T18:24:32.727Z,6.47
2019-05-20T18:27:01.289Z,5.10
2019-05-20T18:29:29.752Z,8.30
2019-05-20T18:31:58.053Z,5.47
2019-05-20T18:34:26.461Z,5.23
2019-05-20T18:36:54.841Z,6.03
2019-05-20T18:39:23.379Z,5.23
2019-05-20T18:41:51.978Z,6.20
2019-05-20T18:44:20.467Z,5.63
2019-05-20T18:46:48.838Z,6.87
2019-05-20T18:49:17.212Z,8.37
2019-05-20T18:51:45.537Z,7.47
2019-05-20T18:54:13.966Z,12.57
2019-05-20T18:56:42.511Z,14.13
2019-05-20T18:59:10.905Z,10.30
2019-05-20T19:01:55.791Z,7.10
2019-05-20T19:04:09.281Z,9.03
2019-05-20T19:06:37.827Z,8.47
2019-05-20T19:09:07.298Z,8.50
2019-05-20T19:11:35.655Z,10.07
2019-05-20T19:14:08.099Z,7.90
2019-05-20T19:16:34.007Z,7.00
2019-05-20T19:19:02.390Z,6.23
2019-05-20T19:21:30.766Z,7.00
2019-05-20T19:23:59.256Z,7.83
2019-05-20T19:26:27.927Z,6.57
2019-05-20T19:28:56.632Z,9.53
2019-05-20T19:31:24.968Z,11.13
2019-05-20T19:33:53.262Z,6.93
2019-05-20T19:36:21.661Z,6.90
2019-05-20T19:38:50.014Z,9.33
2019-05-20T19:41:18.502Z,10.10
2019-05-20T19:43:47.014Z,8.63
2019-05-20T19:46:15.729Z,11.83
2019-05-20T19:48:44.275Z,8.13
2019-05-20T19:51:12.662Z,8.33
2019-05-20T19:53:41.028Z,9.10
2019-05-20T19:56:09.402Z,9.90
2019-05-20T19:58:38.061Z,7.50
2019-05-20T20:01:06.374Z,7.87
2019-05-20T20:03:34.724Z,8.83
2019-05-20T20:06:03.049Z,8.20
2019-05-20T20:08:31.402Z,9.37
2019-05-20T20:10:59.912Z,9.03
2019-05-20T20:13:28.229Z,8.10
2019-05-20T20:15:57.960Z,9.03
2019-05-20T20:18:26.302Z,8.43
2019-05-20T20:20:54.749Z,9.67
2019-05-20T20:23:23.104Z,12.77
2019-05-20T20:25:51.506Z,9.97
2019-05-20T20:28:19.849Z,7.13
2019-05-20T20:30:48.156Z,11.60
2019-05-20T20:33:16.508Z,10.60
2019-05-20T20:35:44.917Z,9.57
2019-05-20T20:38:13.265Z,15.37
2019-05-20T20:40:41.641Z,11.73
2019-05-20T20:43:10.014Z,12.00
2019-05-20T20:45:38.885Z,8.37
2019-05-20T20:48:07.409Z,9.97
2019-05-20T20:50:35.712Z,9.23
2019-05-20T20:53:04.013Z,12.70
2019-05-20T20:55:32.385Z,9.30
2019-05-20T20:58:00.947Z,8.57
2019-05-20T21:00:29.289Z,9.37
2019-05-20T21:02:57.688Z,8.53
2019-05-20T21:05:26.039Z,7.40
2019-05-20T21:07:54.422Z,10.80
2019-05-20T21:10:42.236Z,9.30
2019-05-20T21:13:10.601Z,10.30
2019-05-20T21:15:38.964Z,7.63
2019-05-20T21:18:07.334Z,8.80
2019-05-20T21:20:35.706Z,9.07
2019-05-20T21:23:04.142Z,9.30
2019-05-20T21:25:32.510Z,7.87
2019-05-20T21:28:00.907Z,11.87
2019-05-20T21:30:29.254Z,8.43
2019-05-20T21:33:08.767Z,6.20
2019-05-20T21:35:27.642Z,5.33
2019-05-20T21:37:55.936Z,5.03
2019-05-20T21:40:24.214Z,6.77
2019-05-20T21:42:52.589Z,5.90
2019-05-20T21:45:20.861Z,6.23
2019-05-20T21:47:49.182Z,6.30
2019-05-20T21:50:17.551Z,5.30
2019-05-20T21:52:45.916Z,7.60
2019-05-20T21:55:14.191Z,6.17
2019-05-20T21:57:42.565Z,4.17
2019-05-20T22:00:12.605Z,4.97
2019-05-20T22:02:41.509Z,4.03
2019-05-20T22:05:10.024Z,5.00
2019-05-20T22:07:38.471Z,6.67
2019-05-20T22:10:07.261Z,5.00
2019-05-20T22:12:35.570Z,4.37
2019-05-20T22:15:05.662Z,9.20
2019-05-20T22:17:34.032Z,4.87
2019-05-20T22:20:02.314Z,4.17
2019-05-20T22:22:38.592Z,2.70
2019-05-20T22:25:06.943Z,4.67
2019-05-20T22:27:35.317Z,3.90
2019-05-20T22:30:05.761Z,3.73
2019-05-20T22:32:34.137Z,3.20
2019-05-20T22:35:02.549Z,2.40
2019-05-20T22:37:30.947Z,3.40
2019-05-20T22:39:59.285Z,3.60
2019-05-20T22:42:27.686Z,3.10
2019-05-20T22:44:56.033Z,2.53
2019-05-20T22:47:25.152Z,2.57
2019-05-20T22:49:53.849Z,2.97
2019-05-20T22:52:22.425Z,4.13
2019-05-20T22:54:50.718Z,3.47
2019-05-20T22:57:19.065Z,2.97
2019-05-20T22:59:47.461Z,6.57
2019-05-20T23:02:15.808Z,8.23
2019-05-20T23:04:44.204Z,4.73
2019-05-20T23:07:12.576Z,6.07
2019-05-20T23:09:40.984Z,6.60
2019-05-20T23:12:09.357Z,5.30
2019-05-20T23:14:37.855Z,5.93
2019-05-20T23:17:06.337Z,5.47
2019-05-20T23:19:34.705Z,6.10
2019-05-20T23:22:03.069Z,6.47
2019-05-20T23:24:31.408Z,5.40
2019-05-20T23:26:59.705Z,9.80
2019-05-20T23:29:28.107Z,23.33
2019-05-20T23:31:56.777Z,38.87
2019-05-20T23:34:25.140Z,42.20
2019-05-20T23:36:53.512Z,19.00
2019-05-20T23:39:21.897Z,21.60
2019-05-20T23:41:50.246Z,11.90
2019-05-20T23:44:18.628Z,38.43
2019-05-20T23:46:46.913Z,22.07
2019-05-20T23:49:15.310Z,12.20
2019-05-20T23:51:43.682Z,12.37
2019-05-20T23:54:12.307Z,52.53
2019-05-20T23:56:40.589Z,13.63
2019-05-20T23:59:08.869Z,27.80
